sensor_id;sensor_type;location;lat;lon;timestamp;temperature;humidity
68609;SHT31;55581;46.718;7.690;2022-12-15T00:02:20;4.08;96.56
68609;SHT31;55581;46.718;7.690;2022-12-15T00:05:04;4.16;97.52
68609;SHT31;55581;46.718;7.690;2022-12-15T00:07:48;4.39;97.95
68609;SHT31;55581;46.718;7.690;2022-12-15T00:10:33;4.44;96.66
68609;SHT31;55581;46.718;7.690;2022-12-15T00:13:17;4.49;96.78
68609;SHT31;55581;46.718;7.690;2022-12-15T00:16:01;4.57;96.75
68609;SHT31;55581;46.718;7.690;2022-12-15T00:18:45;4.58;96.92
68609;SHT31;55581;46.718;7.690;2022-12-15T00:21:29;4.57;97.19
68609;SHT31;55581;46.718;7.690;2022-12-15T00:24:13;4.37;96.10
68609;SHT31;55581;46.718;7.690;2022-12-15T00:26:57;4.09;95.15
68609;SHT31;55581;46.718;7.690;2022-12-15T00:29:42;4.01;96.52
68609;SHT31;55581;46.718;7.690;2022-12-15T00:32:26;3.87;96.87
68609;SHT31;55581;46.718;7.690;2022-12-15T00:35:10;3.91;97.05
68609;SHT31;55581;46.718;7.690;2022-12-15T00:37:54;3.91;96.64
68609;SHT31;55581;46.718;7.690;2022-12-15T00:40:38;3.98;98.78
68609;SHT31;55581;46.718;7.690;2022-12-15T00:43:04;3.94;97.89
68609;SHT31;55581;46.718;7.690;2022-12-15T00:45:32;3.81;97.39
68609;SHT31;55581;46.718;7.690;2022-12-15T00:48:16;3.82;98.20
68609;SHT31;55581;46.718;7.690;2022-12-15T00:50:43;3.95;97.54
68609;SHT31;55581;46.718;7.690;2022-12-15T00:53:18;4.12;98.78
68609;SHT31;55581;46.718;7.690;2022-12-15T00:56:03;4.25;98.13
68609;SHT31;55581;46.718;7.690;2022-12-15T00:58:47;4.42;98.26
68609;SHT31;55581;46.718;7.690;2022-12-15T01:01:31;4.43;97.69
68609;SHT31;55581;46.718;7.690;2022-12-15T01:04:15;4.46;96.82
68609;SHT31;55581;46.718;7.690;2022-12-15T01:06:59;4.28;96.18
68609;SHT31;55581;46.718;7.690;2022-12-15T01:09:43;4.13;95.89
68609;SHT31;55581;46.718;7.690;2022-12-15T01:12:27;3.82;95.76
68609;SHT31;55581;46.718;7.690;2022-12-15T01:15:11;3.71;96.99
68609;SHT31;55581;46.718;7.690;2022-12-15T01:17:55;3.50;96.02
68609;SHT31;55581;46.718;7.690;2022-12-15T01:20:39;3.50;97.70
68609;SHT31;55581;46.718;7.690;2022-12-15T01:23:04;3.39;97.18
68609;SHT31;55581;46.718;7.690;2022-12-15T01:25:30;3.37;97.49
68609;SHT31;55581;46.718;7.690;2022-12-15T01:27:55;3.37;97.89
68609;SHT31;55581;46.718;7.690;2022-12-15T01:30:23;3.42;98.02
68609;SHT31;55581;46.718;7.690;2022-12-15T01:32:49;3.34;97.26
68609;SHT31;55581;46.718;7.690;2022-12-15T01:35:15;3.34;96.71
68609;SHT31;55581;46.718;7.690;2022-12-15T01:37:42;3.32;96.38
68609;SHT31;55581;46.718;7.690;2022-12-15T01:40:12;3.26;96.89
68609;SHT31;55581;46.718;7.690;2022-12-15T01:42:56;3.27;96.68
68609;SHT31;55581;46.718;7.690;2022-12-15T01:48:03;3.27;97.34
68609;SHT31;55581;46.718;7.690;2022-12-15T01:50:30;3.34;97.38
68609;SHT31;55581;46.718;7.690;2022-12-15T01:52:57;3.33;97.21
68609;SHT31;55581;46.718;7.690;2022-12-15T01:55:26;3.34;96.60
68609;SHT31;55581;46.718;7.690;2022-12-15T01:57:57;3.30;97.03
68609;SHT31;55581;46.718;7.690;2022-12-15T02:00:23;3.29;96.96
68609;SHT31;55581;46.718;7.690;2022-12-15T02:02:50;3.19;97.13
68609;SHT31;55581;46.718;7.690;2022-12-15T02:05:16;3.30;98.30
68609;SHT31;55581;46.718;7.690;2022-12-15T02:07:42;3.42;99.25
68609;SHT31;55581;46.718;7.690;2022-12-15T02:10:08;3.36;97.44
68609;SHT31;55581;46.718;7.690;2022-12-15T02:31:39;3.77;97.50
68609;SHT31;55581;46.718;7.690;2022-12-15T02:37:23;3.57;97.27
68609;SHT31;55581;46.718;7.690;2022-12-15T02:39:49;3.47;97.02
68609;SHT31;55581;46.718;7.690;2022-12-15T02:42:14;3.44;97.11
68609;SHT31;55581;46.718;7.690;2022-12-15T02:44:44;3.36;96.87
68609;SHT31;55581;46.718;7.690;2022-12-15T02:50:00;3.23;97.18
68609;SHT31;55581;46.718;7.690;2022-12-15T02:52:34;3.20;97.59
68609;SHT31;55581;46.718;7.690;2022-12-15T02:55:16;3.12;96.57
68609;SHT31;55581;46.718;7.690;2022-12-15T02:57:56;3.09;97.65
68609;SHT31;55581;46.718;7.690;2022-12-15T03:00:25;3.11;96.90
68609;SHT31;55581;46.718;7.690;2022-12-15T03:02:53;3.08;97.05
68609;SHT31;55581;46.718;7.690;2022-12-15T03:05:20;3.09;97.32
68609;SHT31;55581;46.718;7.690;2022-12-15T03:07:52;3.02;96.52
68609;SHT31;55581;46.718;7.690;2022-12-15T03:10:19;2.96;97.16
68609;SHT31;55581;46.718;7.690;2022-12-15T03:12:46;3.02;98.33
68609;SHT31;55581;46.718;7.690;2022-12-15T03:15:14;3.04;97.34
68609;SHT31;55581;46.718;7.690;2022-12-15T03:17:40;3.02;96.81
68609;SHT31;55581;46.718;7.690;2022-12-15T03:20:06;3.02;96.97
68609;SHT31;55581;46.718;7.690;2022-12-15T03:22:33;2.94;96.82
68609;SHT31;55581;46.718;7.690;2022-12-15T03:24:58;2.91;96.69
68609;SHT31;55581;46.718;7.690;2022-12-15T03:27:24;2.91;96.71
68609;SHT31;55581;46.718;7.690;2022-12-15T03:29:49;2.89;96.66
68609;SHT31;55581;46.718;7.690;2022-12-15T03:32:14;2.92;96.78
68609;SHT31;55581;46.718;7.690;2022-12-15T03:34:40;2.89;96.72
68609;SHT31;55581;46.718;7.690;2022-12-15T03:37:06;2.88;96.66
68609;SHT31;55581;46.718;7.690;2022-12-15T03:39:31;2.89;96.72
68609;SHT31;55581;46.718;7.690;2022-12-15T03:41:57;2.99;97.95
68609;SHT31;55581;46.718;7.690;2022-12-15T03:44:22;3.04;98.28
68609;SHT31;55581;46.718;7.690;2022-12-15T03:46:48;2.98;97.00
68609;SHT31;55581;46.718;7.690;2022-12-15T03:49:13;2.95;97.28
68609;SHT31;55581;46.718;7.690;2022-12-15T03:51:39;2.94;97.72
68609;SHT31;55581;46.718;7.690;2022-12-15T03:54:04;2.96;98.03
68609;SHT31;55581;46.718;7.690;2022-12-15T03:56:31;2.92;97.79
68609;SHT31;55581;46.718;7.690;2022-12-15T03:58:59;2.92;97.97
68609;SHT31;55581;46.718;7.690;2022-12-15T04:01:30;2.91;98.13
68609;SHT31;55581;46.718;7.690;2022-12-15T04:03:56;2.89;97.93
68609;SHT31;55581;46.718;7.690;2022-12-15T04:06:22;2.96;97.98
68609;SHT31;55581;46.718;7.690;2022-12-15T04:08:48;2.96;97.86
68609;SHT31;55581;46.718;7.690;2022-12-15T04:11:14;2.91;98.21
68609;SHT31;55581;46.718;7.690;2022-12-15T04:13:39;2.91;98.42
68609;SHT31;55581;46.718;7.690;2022-12-15T04:16:05;2.84;97.33
68609;SHT31;55581;46.718;7.690;2022-12-15T04:18:30;2.83;97.89
68609;SHT31;55581;46.718;7.690;2022-12-15T04:20:56;2.81;98.08
68609;SHT31;55581;46.718;7.690;2022-12-15T04:23:22;2.73;97.85
68609;SHT31;55581;46.718;7.690;2022-12-15T04:25:48;2.67;97.77
68609;SHT31;55581;46.718;7.690;2022-12-15T04:28:32;2.62;97.83
68609;SHT31;55581;46.718;7.690;2022-12-15T04:31:22;2.61;98.25
68609;SHT31;55581;46.718;7.690;2022-12-15T04:34:10;2.61;98.04
68609;SHT31;55581;46.718;7.690;2022-12-15T04:36:55;2.61;98.41
68609;SHT31;55581;46.718;7.690;2022-12-15T04:39:41;2.65;98.36
68609;SHT31;55581;46.718;7.690;2022-12-15T04:42:27;2.67;97.62
68609;SHT31;55581;46.718;7.690;2022-12-15T04:45:13;2.77;98.36
68609;SHT31;55581;46.718;7.690;2022-12-15T04:47:58;2.70;97.66
68609;SHT31;55581;46.718;7.690;2022-12-15T04:50:42;2.65;97.64
68609;SHT31;55581;46.718;7.690;2022-12-15T04:53:26;2.70;97.69
68609;SHT31;55581;46.718;7.690;2022-12-15T04:56:13;2.67;97.67
68609;SHT31;55581;46.718;7.690;2022-12-15T04:58:57;2.62;97.56
68609;SHT31;55581;46.718;7.690;2022-12-15T05:01:41;2.67;98.16
68609;SHT31;55581;46.718;7.690;2022-12-15T05:04:25;2.65;98.05
68609;SHT31;55581;46.718;7.690;2022-12-15T05:07:09;2.68;98.05
68609;SHT31;55581;46.718;7.690;2022-12-15T05:09:53;2.67;98.01
68609;SHT31;55581;46.718;7.690;2022-12-15T05:12:37;2.70;97.92
68609;SHT31;55581;46.718;7.690;2022-12-15T05:15:21;2.71;98.06
68609;SHT31;55581;46.718;7.690;2022-12-15T05:18:05;2.73;97.86
68609;SHT31;55581;46.718;7.690;2022-12-15T05:20:49;2.70;97.18
68609;SHT31;55581;46.718;7.690;2022-12-15T05:23:32;2.67;97.33
68609;SHT31;55581;46.718;7.690;2022-12-15T05:26:17;2.73;98.62
68609;SHT31;55581;46.718;7.690;2022-12-15T05:29:01;2.77;98.33
68609;SHT31;55581;46.718;7.690;2022-12-15T05:31:45;2.78;97.92
68609;SHT31;55581;46.718;7.690;2022-12-15T05:34:21;2.77;97.77
68609;SHT31;55581;46.718;7.690;2022-12-15T05:36:47;2.85;98.43
68609;SHT31;55581;46.718;7.690;2022-12-15T05:39:13;2.71;97.08
68609;SHT31;55581;46.718;7.690;2022-12-15T05:41:38;2.71;97.86
68609;SHT31;55581;46.718;7.690;2022-12-15T05:44:04;2.60;97.30
68609;SHT31;55581;46.718;7.690;2022-12-15T05:46:29;2.61;98.33
68609;SHT31;55581;46.718;7.690;2022-12-15T05:48:55;2.62;97.75
68609;SHT31;55581;46.718;7.690;2022-12-15T05:51:20;2.58;97.86
68609;SHT31;55581;46.718;7.690;2022-12-15T05:53:46;2.64;98.70
68609;SHT31;55581;46.718;7.690;2022-12-15T05:56:12;2.73;98.82
68609;SHT31;55581;46.718;7.690;2022-12-15T05:58:39;2.81;98.63
68609;SHT31;55581;46.718;7.690;2022-12-15T06:01:13;2.94;99.06
68609;SHT31;55581;46.718;7.690;2022-12-15T06:03:39;2.98;98.25
68609;SHT31;55581;46.718;7.690;2022-12-15T06:06:05;2.91;96.78
68609;SHT31;55581;46.718;7.690;2022-12-15T06:08:34;2.81;96.65
68609;SHT31;55581;46.718;7.690;2022-12-15T06:11:00;2.77;96.93
68609;SHT31;55581;46.718;7.690;2022-12-15T06:13:27;2.70;96.98
68609;SHT31;55581;46.718;7.690;2022-12-15T06:16:05;2.80;97.91
68609;SHT31;55581;46.718;7.690;2022-12-15T06:18:34;2.83;97.86
68609;SHT31;55581;46.718;7.690;2022-12-15T06:21:07;2.85;98.42
68609;SHT31;55581;46.718;7.690;2022-12-15T06:23:33;2.89;97.30
68609;SHT31;55581;46.718;7.690;2022-12-15T06:26:07;2.89;97.50
68609;SHT31;55581;46.718;7.690;2022-12-15T06:28:33;2.84;97.59
68609;SHT31;55581;46.718;7.690;2022-12-15T06:31:01;2.78;97.30
68609;SHT31;55581;46.718;7.690;2022-12-15T06:33:28;2.74;97.47
68609;SHT31;55581;46.718;7.690;2022-12-15T06:35:56;2.70;97.57
68609;SHT31;55581;46.718;7.690;2022-12-15T06:38:24;2.65;97.55
68609;SHT31;55581;46.718;7.690;2022-12-15T06:40:59;2.68;97.59
68609;SHT31;55581;46.718;7.690;2022-12-15T06:43:26;2.71;97.39
68609;SHT31;55581;46.718;7.690;2022-12-15T06:45:51;2.65;97.85
68609;SHT31;55581;46.718;7.690;2022-12-15T06:48:20;2.71;98.19
68609;SHT31;55581;46.718;7.690;2022-12-15T06:50:46;2.73;98.72
68609;SHT31;55581;46.718;7.690;2022-12-15T06:53:13;2.80;98.42
68609;SHT31;55581;46.718;7.690;2022-12-15T06:55:40;2.78;96.59
68609;SHT31;55581;46.718;7.690;2022-12-15T06:58:06;2.81;96.71
68609;SHT31;55581;46.718;7.690;2022-12-15T07:00:33;2.94;96.84
68609;SHT31;55581;46.718;7.690;2022-12-15T07:03:01;2.91;96.89
68609;SHT31;55581;46.718;7.690;2022-12-15T07:05:26;2.91;97.12
68609;SHT31;55581;46.718;7.690;2022-12-15T07:07:52;3.01;98.09
68609;SHT31;55581;46.718;7.690;2022-12-15T07:10:17;3.02;97.19
68609;SHT31;55581;46.718;7.690;2022-12-15T07:12:42;3.02;96.92
68609;SHT31;55581;46.718;7.690;2022-12-15T07:15:08;3.06;97.85
68609;SHT31;55581;46.718;7.690;2022-12-15T07:17:35;3.12;97.97
68609;SHT31;55581;46.718;7.690;2022-12-15T07:20:05;3.11;97.43
68609;SHT31;55581;46.718;7.690;2022-12-15T07:22:30;3.15;97.59
68609;SHT31;55581;46.718;7.690;2022-12-15T07:24:56;3.30;97.45
68609;SHT31;55581;46.718;7.690;2022-12-15T07:27:21;3.44;97.91
68609;SHT31;55581;46.718;7.690;2022-12-15T07:29:46;3.59;98.00
68609;SHT31;55581;46.718;7.690;2022-12-15T07:32:12;3.67;97.46
68609;SHT31;55581;46.718;7.690;2022-12-15T07:34:37;3.71;97.18
68609;SHT31;55581;46.718;7.690;2022-12-15T07:37:05;3.63;96.49
68609;SHT31;55581;46.718;7.690;2022-12-15T07:39:31;3.54;96.23
68609;SHT31;55581;46.718;7.690;2022-12-15T07:41:56;3.47;96.58
68609;SHT31;55581;46.718;7.690;2022-12-15T07:44:22;3.34;95.91
68609;SHT31;55581;46.718;7.690;2022-12-15T07:46:47;3.24;96.00
68609;SHT31;55581;46.718;7.690;2022-12-15T07:49:14;3.20;96.51
68609;SHT31;55581;46.718;7.690;2022-12-15T07:51:40;3.20;96.07
68609;SHT31;55581;46.718;7.690;2022-12-15T07:54:07;3.18;95.94
68609;SHT31;55581;46.718;7.690;2022-12-15T07:56:32;3.19;96.65
68609;SHT31;55581;46.718;7.690;2022-12-15T07:58:58;3.22;96.99
68609;SHT31;55581;46.718;7.690;2022-12-15T08:01:23;3.26;96.43
68609;SHT31;55581;46.718;7.690;2022-12-15T08:03:49;3.19;94.78
68609;SHT31;55581;46.718;7.690;2022-12-15T08:06:15;3.18;95.48
68609;SHT31;55581;46.718;7.690;2022-12-15T08:08:42;3.22;96.02
68609;SHT31;55581;46.718;7.690;2022-12-15T08:11:10;3.22;96.30
68609;SHT31;55581;46.718;7.690;2022-12-15T08:13:37;3.30;96.91
68609;SHT31;55581;46.718;7.690;2022-12-15T08:16:03;3.36;96.76
68609;SHT31;55581;46.718;7.690;2022-12-15T08:18:28;3.36;96.23
68609;SHT31;55581;46.718;7.690;2022-12-15T08:20:54;3.39;96.39
68609;SHT31;55581;46.718;7.690;2022-12-15T08:23:19;3.42;96.24
68609;SHT31;55581;46.718;7.690;2022-12-15T08:25:45;3.46;96.52
68609;SHT31;55581;46.718;7.690;2022-12-15T08:28:10;3.50;96.27
68609;SHT31;55581;46.718;7.690;2022-12-15T08:30:35;3.51;95.87
68609;SHT31;55581;46.718;7.690;2022-12-15T08:33:02;3.61;96.76
68609;SHT31;55581;46.718;7.690;2022-12-15T08:35:27;3.66;96.66
68609;SHT31;55581;46.718;7.690;2022-12-15T08:37:53;3.71;95.84
68609;SHT31;55581;46.718;7.690;2022-12-15T08:40:19;3.60;95.64
68609;SHT31;55581;46.718;7.690;2022-12-15T08:42:44;3.63;95.73
68609;SHT31;55581;46.718;7.690;2022-12-15T08:45:10;3.67;95.84
68609;SHT31;55581;46.718;7.690;2022-12-15T08:47:39;3.70;96.09
68609;SHT31;55581;46.718;7.690;2022-12-15T08:50:06;3.74;95.09
68609;SHT31;55581;46.718;7.690;2022-12-15T08:52:33;3.74;94.89
68609;SHT31;55581;46.718;7.690;2022-12-15T08:55:01;3.78;95.00
68609;SHT31;55581;46.718;7.690;2022-12-15T08:57:26;3.82;95.78
68609;SHT31;55581;46.718;7.690;2022-12-15T08:59:54;3.87;95.49
68609;SHT31;55581;46.718;7.690;2022-12-15T09:02:19;3.85;94.91
68609;SHT31;55581;46.718;7.690;2022-12-15T09:04:45;3.85;94.72
68609;SHT31;55581;46.718;7.690;2022-12-15T09:07:10;3.85;94.81
68609;SHT31;55581;46.718;7.690;2022-12-15T09:09:36;3.88;95.00
68609;SHT31;55581;46.718;7.690;2022-12-15T09:12:01;3.89;94.79
68609;SHT31;55581;46.718;7.690;2022-12-15T09:14:27;3.97;94.95
68609;SHT31;55581;46.718;7.690;2022-12-15T09:16:52;4.01;95.05
68609;SHT31;55581;46.718;7.690;2022-12-15T09:19:18;4.03;95.11
68609;SHT31;55581;46.718;7.690;2022-12-15T09:21:43;4.01;94.74
68609;SHT31;55581;46.718;7.690;2022-12-15T09:24:11;4.01;94.72
68609;SHT31;55581;46.718;7.690;2022-12-15T09:26:37;4.06;94.74
68609;SHT31;55581;46.718;7.690;2022-12-15T09:29:03;4.12;95.44
68609;SHT31;55581;46.718;7.690;2022-12-15T09:31:35;4.15;94.91
68609;SHT31;55581;46.718;7.690;2022-12-15T09:34:01;4.17;94.89
68609;SHT31;55581;46.718;7.690;2022-12-15T09:36:26;4.20;95.06
68609;SHT31;55581;46.718;7.690;2022-12-15T09:38:52;4.25;95.11
68609;SHT31;55581;46.718;7.690;2022-12-15T09:41:25;4.39;95.34
68609;SHT31;55581;46.718;7.690;2022-12-15T09:44:11;4.49;94.78
68609;SHT31;55581;46.718;7.690;2022-12-15T09:52:15;4.39;94.12
68609;SHT31;55581;46.718;7.690;2022-12-15T09:54:42;4.42;93.82
68609;SHT31;55581;46.718;7.690;2022-12-15T09:57:35;4.42;93.94
68609;SHT31;55581;46.718;7.690;2022-12-15T10:00:16;4.44;94.13
68609;SHT31;55581;46.718;7.690;2022-12-15T10:02:59;4.46;94.44
68609;SHT31;55581;46.718;7.690;2022-12-15T10:08:07;4.44;93.63
68609;SHT31;55581;46.718;7.690;2022-12-15T10:10:45;4.33;93.35
68609;SHT31;55581;46.718;7.690;2022-12-15T10:13:29;4.34;93.79
68609;SHT31;55581;46.718;7.690;2022-12-15T10:16:04;4.29;93.68
68609;SHT31;55581;46.718;7.690;2022-12-15T10:21:26;4.36;93.44
68609;SHT31;55581;46.718;7.690;2022-12-15T10:23:53;4.40;93.34
68609;SHT31;55581;46.718;7.690;2022-12-15T10:26:25;4.46;93.05
68609;SHT31;55581;46.718;7.690;2022-12-15T10:31:56;4.46;93.39
68609;SHT31;55581;46.718;7.690;2022-12-15T10:34:29;4.56;93.75
68609;SHT31;55581;46.718;7.690;2022-12-15T10:36:56;4.64;93.58
68609;SHT31;55581;46.718;7.690;2022-12-15T10:39:23;4.74;92.91
68609;SHT31;55581;46.718;7.690;2022-12-15T10:42:22;4.85;92.88
68609;SHT31;55581;46.718;7.690;2022-12-15T10:44:53;4.92;92.55
68609;SHT31;55581;46.718;7.690;2022-12-15T10:47:27;4.81;91.49
68609;SHT31;55581;46.718;7.690;2022-12-15T10:49:55;4.87;91.55
68609;SHT31;55581;46.718;7.690;2022-12-15T10:52:31;4.82;91.57
68609;SHT31;55581;46.718;7.690;2022-12-15T10:54:59;4.81;92.51
68609;SHT31;55581;46.718;7.690;2022-12-15T10:57:27;4.82;91.94
68609;SHT31;55581;46.718;7.690;2022-12-15T11:02:43;4.91;92.24
68609;SHT31;55581;46.718;7.690;2022-12-15T11:10:28;5.08;93.24
68609;SHT31;55581;46.718;7.690;2022-12-15T11:13:16;5.13;91.45
68609;SHT31;55581;46.718;7.690;2022-12-15T11:15:43;5.16;90.99
68609;SHT31;55581;46.718;7.690;2022-12-15T11:26:49;4.87;91.83
68609;SHT31;55581;46.718;7.690;2022-12-15T11:29:28;4.91;92.66
68609;SHT31;55581;46.718;7.690;2022-12-15T11:31:55;4.98;92.37
68609;SHT31;55581;46.718;7.690;2022-12-15T11:34:24;5.01;92.15
68609;SHT31;55581;46.718;7.690;2022-12-15T11:39:45;5.08;91.39
68609;SHT31;55581;46.718;7.690;2022-12-15T11:42:19;5.11;92.05
68609;SHT31;55581;46.718;7.690;2022-12-15T11:45:01;5.08;91.39
68609;SHT31;55581;46.718;7.690;2022-12-15T11:51:05;5.18;90.96
68609;SHT31;55581;46.718;7.690;2022-12-15T11:56:34;5.20;91.49
68609;SHT31;55581;46.718;7.690;2022-12-15T12:12:39;5.15;91.61
68609;SHT31;55581;46.718;7.690;2022-12-15T12:17:51;5.18;91.43
68609;SHT31;55581;46.718;7.690;2022-12-15T12:20:34;5.13;91.33
68609;SHT31;55581;46.718;7.690;2022-12-15T12:25:30;5.04;90.83
68609;SHT31;55581;46.718;7.690;2022-12-15T12:28:01;4.88;90.58
68609;SHT31;55581;46.718;7.690;2022-12-15T12:30:41;4.89;91.37
68609;SHT31;55581;46.718;7.690;2022-12-15T12:35:56;4.77;91.61
68609;SHT31;55581;46.718;7.690;2022-12-15T12:38:32;4.80;92.01
68609;SHT31;55581;46.718;7.690;2022-12-15T12:41:11;4.77;92.07
68609;SHT31;55581;46.718;7.690;2022-12-15T12:43:43;4.80;91.93
68609;SHT31;55581;46.718;7.690;2022-12-15T12:46:40;4.81;92.23
68609;SHT31;55581;46.718;7.690;2022-12-15T12:51:49;4.84;90.98
68609;SHT31;55581;46.718;7.690;2022-12-15T12:56:56;4.93;91.21
68609;SHT31;55581;46.718;7.690;2022-12-15T13:01:55;4.85;91.28
68609;SHT31;55581;46.718;7.690;2022-12-15T13:07:02;4.81;92.22
68609;SHT31;55581;46.718;7.690;2022-12-15T13:09:42;4.71;91.96
68609;SHT31;55581;46.718;7.690;2022-12-15T13:12:48;4.74;92.41
68609;SHT31;55581;46.718;7.690;2022-12-15T13:15:40;4.60;92.48
68609;SHT31;55581;46.718;7.690;2022-12-15T13:20:39;4.36;92.82
68609;SHT31;55581;46.718;7.690;2022-12-15T13:46:45;4.01;95.24
68609;SHT31;55581;46.718;7.690;2022-12-15T13:49:36;3.97;94.19
68609;SHT31;55581;46.718;7.690;2022-12-15T13:52:10;3.95;94.09
68609;SHT31;55581;46.718;7.690;2022-12-15T13:54:40;4.01;93.86
68609;SHT31;55581;46.718;7.690;2022-12-15T13:57:14;3.95;94.18
68609;SHT31;55581;46.718;7.690;2022-12-15T13:59:49;4.01;93.92
68609;SHT31;55581;46.718;7.690;2022-12-15T14:02:33;3.89;94.49
68609;SHT31;55581;46.718;7.690;2022-12-15T14:07:55;3.92;96.03
68609;SHT31;55581;46.718;7.690;2022-12-15T14:12:55;3.81;95.19
68609;SHT31;55581;46.718;7.690;2022-12-15T14:15:27;3.87;95.92
68609;SHT31;55581;46.718;7.690;2022-12-15T14:17:55;3.87;95.11
68609;SHT31;55581;46.718;7.690;2022-12-15T14:20:30;3.85;95.50
68609;SHT31;55581;46.718;7.690;2022-12-15T14:22:58;3.89;95.21
68609;SHT31;55581;46.718;7.690;2022-12-15T14:25:26;3.91;94.77
68609;SHT31;55581;46.718;7.690;2022-12-15T14:27:54;3.88;95.21
68609;SHT31;55581;46.718;7.690;2022-12-15T14:30:23;3.81;94.75
68609;SHT31;55581;46.718;7.690;2022-12-15T14:33:05;3.77;94.62
68609;SHT31;55581;46.718;7.690;2022-12-15T14:35:43;3.77;95.23
68609;SHT31;55581;46.718;7.690;2022-12-15T14:38:18;3.73;95.21
68609;SHT31;55581;46.718;7.690;2022-12-15T14:40:46;3.74;95.72
68609;SHT31;55581;46.718;7.690;2022-12-15T14:43:21;3.75;95.29
68609;SHT31;55581;46.718;7.690;2022-12-15T14:45:50;3.74;94.72
68609;SHT31;55581;46.718;7.690;2022-12-15T14:48:26;3.81;94.64
68609;SHT31;55581;46.718;7.690;2022-12-15T14:50:53;3.82;95.24
68609;SHT31;55581;46.718;7.690;2022-12-15T14:53:19;3.85;94.92
68609;SHT31;55581;46.718;7.690;2022-12-15T14:55:46;3.88;94.41
68609;SHT31;55581;46.718;7.690;2022-12-15T14:58:31;3.79;94.75
68609;SHT31;55581;46.718;7.690;2022-12-15T15:00:58;3.77;93.95
68609;SHT31;55581;46.718;7.690;2022-12-15T15:03:38;3.70;94.52
68609;SHT31;55581;46.718;7.690;2022-12-15T15:06:51;3.64;94.61
68609;SHT31;55581;46.718;7.690;2022-12-15T15:08:51;3.71;94.81
68609;SHT31;55581;46.718;7.690;2022-12-15T15:13:42;3.81;95.28
68609;SHT31;55581;46.718;7.690;2022-12-15T15:16:17;3.81;94.47
68609;SHT31;55581;46.718;7.690;2022-12-15T15:18:43;3.81;93.97
68609;SHT31;55581;46.718;7.690;2022-12-15T15:21:19;3.78;94.74
68609;SHT31;55581;46.718;7.690;2022-12-15T15:24:02;3.84;95.37
68609;SHT31;55581;46.718;7.690;2022-12-15T15:26:29;3.87;94.57
68609;SHT31;55581;46.718;7.690;2022-12-15T15:28:55;3.89;94.20
68609;SHT31;55581;46.718;7.690;2022-12-15T15:33:51;3.77;94.57
68609;SHT31;55581;46.718;7.690;2022-12-15T15:36:17;3.84;95.33
68609;SHT31;55581;46.718;7.690;2022-12-15T15:38:43;3.79;94.54
68609;SHT31;55581;46.718;7.690;2022-12-15T15:41:19;3.84;94.50
68609;SHT31;55581;46.718;7.690;2022-12-15T15:43:45;3.82;94.62
68609;SHT31;55581;46.718;7.690;2022-12-15T15:46:32;3.73;93.74
68609;SHT31;55581;46.718;7.690;2022-12-15T15:49:00;3.68;94.26
68609;SHT31;55581;46.718;7.690;2022-12-15T15:51:28;3.64;94.14
68609;SHT31;55581;46.718;7.690;2022-12-15T15:53:57;3.54;94.37
68609;SHT31;55581;46.718;7.690;2022-12-15T15:56:25;3.53;95.22
68609;SHT31;55581;46.718;7.690;2022-12-15T15:58:51;3.51;95.41
68609;SHT31;55581;46.718;7.690;2022-12-15T16:01:17;3.50;95.18
68609;SHT31;55581;46.718;7.690;2022-12-15T16:03:42;3.42;94.70
68609;SHT31;55581;46.718;7.690;2022-12-15T16:06:15;3.33;95.56
68609;SHT31;55581;46.718;7.690;2022-12-15T16:08:41;3.23;94.92
68609;SHT31;55581;46.718;7.690;2022-12-15T16:11:12;3.22;94.97
68609;SHT31;55581;46.718;7.690;2022-12-15T16:13:37;3.19;95.10
68609;SHT31;55581;46.718;7.690;2022-12-15T16:16:04;3.23;95.32
68609;SHT31;55581;46.718;7.690;2022-12-15T16:18:29;3.24;95.69
68609;SHT31;55581;46.718;7.690;2022-12-15T16:20:56;3.24;95.59
68609;SHT31;55581;46.718;7.690;2022-12-15T16:23:25;3.26;95.91
68609;SHT31;55581;46.718;7.690;2022-12-15T16:25:53;3.27;95.72
68609;SHT31;55581;46.718;7.690;2022-12-15T16:28:22;3.30;95.30
68609;SHT31;55581;46.718;7.690;2022-12-15T16:30:48;3.36;95.78
68609;SHT31;55581;46.718;7.690;2022-12-15T16:33:14;3.40;95.46
68609;SHT31;55581;46.718;7.690;2022-12-15T16:35:41;3.40;95.42
68609;SHT31;55581;46.718;7.690;2022-12-15T16:38:21;3.49;95.57
68609;SHT31;55581;46.718;7.690;2022-12-15T16:40:47;3.47;94.90
68609;SHT31;55581;46.718;7.690;2022-12-15T16:43:18;3.53;95.46
68609;SHT31;55581;46.718;7.690;2022-12-15T16:45:46;3.51;94.46
68609;SHT31;55581;46.718;7.690;2022-12-15T16:48:13;3.53;95.10
68609;SHT31;55581;46.718;7.690;2022-12-15T16:50:41;3.57;95.21
68609;SHT31;55581;46.718;7.690;2022-12-15T16:53:25;3.43;94.41
68609;SHT31;55581;46.718;7.690;2022-12-15T16:55:57;3.42;95.69
68609;SHT31;55581;46.718;7.690;2022-12-15T16:58:23;3.33;94.67
68609;SHT31;55581;46.718;7.690;2022-12-15T17:00:49;3.32;94.86
68609;SHT31;55581;46.718;7.690;2022-12-15T17:03:16;3.30;95.89
68609;SHT31;55581;46.718;7.690;2022-12-15T17:05:46;3.29;95.85
68609;SHT31;55581;46.718;7.690;2022-12-15T17:08:16;3.27;95.80
68609;SHT31;55581;46.718;7.690;2022-12-15T17:10:45;3.30;95.72
68609;SHT31;55581;46.718;7.690;2022-12-15T17:15:43;3.33;95.99
68609;SHT31;55581;46.718;7.690;2022-12-15T17:18:11;3.36;96.14
68609;SHT31;55581;46.718;7.690;2022-12-15T17:20:38;3.32;95.43
68609;SHT31;55581;46.718;7.690;2022-12-15T17:23:06;3.39;95.82
68609;SHT31;55581;46.718;7.690;2022-12-15T17:25:37;3.36;94.67
68609;SHT31;55581;46.718;7.690;2022-12-15T17:28:12;3.32;95.20
68609;SHT31;55581;46.718;7.690;2022-12-15T17:30:38;3.34;95.12
68609;SHT31;55581;46.718;7.690;2022-12-15T17:33:15;3.29;93.90
68609;SHT31;55581;46.718;7.690;2022-12-15T17:35:41;3.29;95.20
68609;SHT31;55581;46.718;7.690;2022-12-15T17:38:11;3.20;94.44
68609;SHT31;55581;46.718;7.690;2022-12-15T17:40:38;3.18;94.18
68609;SHT31;55581;46.718;7.690;2022-12-15T17:43:11;3.13;94.46
68609;SHT31;55581;46.718;7.690;2022-12-15T17:45:37;3.16;95.02
68609;SHT31;55581;46.718;7.690;2022-12-15T17:48:02;3.16;95.01
68609;SHT31;55581;46.718;7.690;2022-12-15T17:50:29;3.16;93.98
68609;SHT31;55581;46.718;7.690;2022-12-15T17:52:56;3.19;94.02
68609;SHT31;55581;46.718;7.690;2022-12-15T17:55:23;3.13;93.68
68609;SHT31;55581;46.718;7.690;2022-12-15T17:57:50;3.11;93.86
68609;SHT31;55581;46.718;7.690;2022-12-15T18:02:45;2.96;94.96
68609;SHT31;55581;46.718;7.690;2022-12-15T18:05:10;2.98;95.61
68609;SHT31;55581;46.718;7.690;2022-12-15T18:07:36;2.96;95.27
68609;SHT31;55581;46.718;7.690;2022-12-15T18:10:01;2.96;95.26
68609;SHT31;55581;46.718;7.690;2022-12-15T18:12:27;2.99;95.52
68609;SHT31;55581;46.718;7.690;2022-12-15T18:14:54;3.04;95.72
68609;SHT31;55581;46.718;7.690;2022-12-15T18:17:19;3.05;95.42
68609;SHT31;55581;46.718;7.690;2022-12-15T18:19:45;3.11;95.16
68609;SHT31;55581;46.718;7.690;2022-12-15T18:22:18;3.13;94.82
68609;SHT31;55581;46.718;7.690;2022-12-15T18:24:45;3.19;94.88
68609;SHT31;55581;46.718;7.690;2022-12-15T18:27:20;3.09;94.25
68609;SHT31;55581;46.718;7.690;2022-12-15T18:29:45;3.06;94.76
68609;SHT31;55581;46.718;7.690;2022-12-15T18:32:11;3.09;95.49